sensor_id;sensor_type;location;lat;lon;timestamp;P1;durP1;ratioP1;P2;durP2;ratioP2
79478;SDS011;68943;49.472;17.970;2023-09-19T00:02:01;13.13;;;8.98;;
79478;SDS011;68943;49.472;17.970;2023-09-19T00:04:30;12.68;;;9.32;;
79478;SDS011;68943;49.472;17.970;2023-09-19T00:06:57;14.40;;;9.63;;
79478;SDS011;68943;49.472;17.970;2023-09-19T00:09:23;13.35;;;9.15;;
79478;SDS011;68943;49.472;17.970;2023-09-19T00:14:18;14.18;;;9.57;;
79478;SDS011;68943;49.472;17.970;2023-09-19T00:16:44;14.88;;;9.23;;
79478;SDS011;68943;49.472;17.970;2023-09-19T00:19:14;14.85;;;9.73;;
79478;SDS011;68943;49.472;17.970;2023-09-19T00:21:41;13.70;;;9.23;;
79478;SDS011;68943;49.472;17.970;2023-09-19T00:24:08;14.73;;;9.45;;
79478;SDS011;68943;49.472;17.970;2023-09-19T00:26:34;13.98;;;9.60;;
79478;SDS011;68943;49.472;17.970;2023-09-19T00:29:01;14.95;;;9.43;;
79478;SDS011;68943;49.472;17.970;2023-09-19T00:31:28;16.77;;;9.88;;
79478;SDS011;68943;49.472;17.970;2023-09-19T00:33:55;13.75;;;9.63;;
79478;SDS011;68943;49.472;17.970;2023-09-19T00:36:25;13.23;;;9.63;;
79478;SDS011;68943;49.472;17.970;2023-09-19T00:38:51;15.88;;;9.57;;
79478;SDS011;68943;49.472;17.970;2023-09-19T00:41:18;15.05;;;9.75;;
79478;SDS011;68943;49.472;17.970;2023-09-19T00:43:44;16.23;;;9.82;;
79478;SDS011;68943;49.472;17.970;2023-09-19T00:46:10;16.88;;;10.30;;
79478;SDS011;68943;49.472;17.970;2023-09-19T00:48:40;14.50;;;9.93;;
79478;SDS011;68943;49.472;17.970;2023-09-19T00:51:08;15.18;;;9.75;;
79478;SDS011;68943;49.472;17.970;2023-09-19T00:53:35;14.50;;;9.88;;
79478;SDS011;68943;49.472;17.970;2023-09-19T00:56:02;16.33;;;10.30;;
79478;SDS011;68943;49.472;17.970;2023-09-19T00:58:33;13.77;;;9.75;;
79478;SDS011;68943;49.472;17.970;2023-09-19T01:01:01;14.20;;;9.25;;
79478;SDS011;68943;49.472;17.970;2023-09-19T01:03:31;15.05;;;10.48;;
79478;SDS011;68943;49.472;17.970;2023-09-19T01:05:59;16.17;;;10.05;;
79478;SDS011;68943;49.472;17.970;2023-09-19T01:08:31;15.18;;;10.85;;
79478;SDS011;68943;49.472;17.970;2023-09-19T01:10:59;16.42;;;10.55;;
79478;SDS011;68943;49.472;17.970;2023-09-19T01:16:56;16.75;;;10.40;;
79478;SDS011;68943;49.472;17.970;2023-09-19T01:29:39;13.93;;;9.15;;
79478;SDS011;68943;49.472;17.970;2023-09-19T01:32:08;13.60;;;10.45;;
79478;SDS011;68943;49.472;17.970;2023-09-19T01:34:50;14.77;;;10.07;;
79478;SDS011;68943;49.472;17.970;2023-09-19T01:37:18;15.40;;;9.68;;
79478;SDS011;68943;49.472;17.970;2023-09-19T01:39:49;12.43;;;9.38;;
79478;SDS011;68943;49.472;17.970;2023-09-19T01:47:52;13.80;;;8.98;;
79478;SDS011;68943;49.472;17.970;2023-09-19T01:50:29;16.63;;;9.48;;
79478;SDS011;68943;49.472;17.970;2023-09-19T01:55:53;15.55;;;9.43;;
79478;SDS011;68943;49.472;17.970;2023-09-19T01:58:21;13.40;;;8.90;;
79478;SDS011;68943;49.472;17.970;2023-09-19T02:00:48;16.80;;;9.90;;
79478;SDS011;68943;49.472;17.970;2023-09-19T02:03:17;16.83;;;10.70;;
79478;SDS011;68943;49.472;17.970;2023-09-19T02:05:49;14.13;;;10.35;;
79478;SDS011;68943;49.472;17.970;2023-09-19T02:08:19;14.48;;;9.88;;
79478;SDS011;68943;49.472;17.970;2023-09-19T02:10:46;15.38;;;9.73;;
79478;SDS011;68943;49.472;17.970;2023-09-19T02:13:15;16.25;;;10.07;;
79478;SDS011;68943;49.472;17.970;2023-09-19T02:15:42;14.77;;;9.13;;
79478;SDS011;68943;49.472;17.970;2023-09-19T02:18:11;14.13;;;9.05;;
79478;SDS011;68943;49.472;17.970;2023-09-19T02:20:38;15.75;;;10.60;;
79478;SDS011;68943;49.472;17.970;2023-09-19T02:23:05;16.67;;;10.07;;
79478;SDS011;68943;49.472;17.970;2023-09-19T02:25:31;14.25;;;8.48;;
79478;SDS011;68943;49.472;17.970;2023-09-19T02:27:57;16.17;;;11.00;;
79478;SDS011;68943;49.472;17.970;2023-09-19T02:30:24;18.75;;;10.45;;
79478;SDS011;68943;49.472;17.970;2023-09-19T02:32:51;15.35;;;11.00;;
79478;SDS011;68943;49.472;17.970;2023-09-19T02:35:17;12.57;;;10.35;;
79478;SDS011;68943;49.472;17.970;2023-09-19T02:40:12;13.20;;;9.30;;
79478;SDS011;68943;49.472;17.970;2023-09-19T02:42:52;15.00;;;10.23;;
79478;SDS011;68943;49.472;17.970;2023-09-19T02:45:18;12.23;;;9.30;;
79478;SDS011;68943;49.472;17.970;2023-09-19T02:47:45;14.63;;;10.45;;
79478;SDS011;68943;49.472;17.970;2023-09-19T02:50:11;17.20;;;10.05;;
79478;SDS011;68943;49.472;17.970;2023-09-19T02:52:38;11.73;;;9.60;;
79478;SDS011;68943;49.472;17.970;2023-09-19T02:55:08;14.15;;;11.27;;
79478;SDS011;68943;49.472;17.970;2023-09-19T02:57:34;14.52;;;10.32;;
79478;SDS011;68943;49.472;17.970;2023-09-19T03:00:01;14.98;;;9.77;;
79478;SDS011;68943;49.472;17.970;2023-09-19T03:02:27;14.20;;;9.15;;
79478;SDS011;68943;49.472;17.970;2023-09-19T03:04:53;12.80;;;9.57;;
79478;SDS011;68943;49.472;17.970;2023-09-19T03:07:22;17.08;;;10.48;;
79478;SDS011;68943;49.472;17.970;2023-09-19T03:09:48;14.98;;;9.60;;
79478;SDS011;68943;49.472;17.970;2023-09-19T03:12:15;23.92;;;10.48;;
79478;SDS011;68943;49.472;17.970;2023-09-19T03:14:41;14.57;;;9.88;;
79478;SDS011;68943;49.472;17.970;2023-09-19T03:17:07;13.70;;;9.52;;
79478;SDS011;68943;49.472;17.970;2023-09-19T03:19:34;15.18;;;10.63;;
79478;SDS011;68943;49.472;17.970;2023-09-19T03:22:08;15.45;;;10.48;;
79478;SDS011;68943;49.472;17.970;2023-09-19T03:24:34;17.00;;;10.20;;
79478;SDS011;68943;49.472;17.970;2023-09-19T03:27:05;15.30;;;11.13;;
79478;SDS011;68943;49.472;17.970;2023-09-19T03:29:35;15.40;;;10.55;;
79478;SDS011;68943;49.472;17.970;2023-09-19T03:32:01;16.98;;;10.52;;
79478;SDS011;68943;49.472;17.970;2023-09-19T03:34:28;15.65;;;11.25;;
79478;SDS011;68943;49.472;17.970;2023-09-19T03:36:54;14.75;;;10.50;;
79478;SDS011;68943;49.472;17.970;2023-09-19T03:39:20;15.48;;;11.65;;
79478;SDS011;68943;49.472;17.970;2023-09-19T03:41:46;17.67;;;11.35;;
79478;SDS011;68943;49.472;17.970;2023-09-19T03:44:13;15.80;;;9.52;;
79478;SDS011;68943;49.472;17.970;2023-09-19T03:46:40;10.32;;;7.97;;
79478;SDS011;68943;49.472;17.970;2023-09-19T03:49:06;10.65;;;6.80;;
79478;SDS011;68943;49.472;17.970;2023-09-19T03:51:33;8.30;;;5.15;;
79478;SDS011;68943;49.472;17.970;2023-09-19T03:53:59;10.30;;;6.57;;
79478;SDS011;68943;49.472;17.970;2023-09-19T03:56:25;7.68;;;4.90;;
79478;SDS011;68943;49.472;17.970;2023-09-19T03:58:53;10.35;;;5.13;;
79478;SDS011;68943;49.472;17.970;2023-09-19T04:01:20;5.95;;;3.38;;
79478;SDS011;68943;49.472;17.970;2023-09-19T04:03:46;4.65;;;2.20;;
79478;SDS011;68943;49.472;17.970;2023-09-19T04:06:15;2.13;;;1.35;;
79478;SDS011;68943;49.472;17.970;2023-09-19T04:08:42;3.35;;;1.55;;
79478;SDS011;68943;49.472;17.970;2023-09-19T04:11:09;3.97;;;2.28;;
79478;SDS011;68943;49.472;17.970;2023-09-19T04:13:35;5.68;;;1.30;;
79478;SDS011;68943;49.472;17.970;2023-09-19T04:16:01;2.75;;;1.45;;
79478;SDS011;68943;49.472;17.970;2023-09-19T04:18:29;3.05;;;0.88;;
79478;SDS011;68943;49.472;17.970;2023-09-19T04:20:58;5.82;;;0.93;;
79478;SDS011;68943;49.472;17.970;2023-09-19T04:23:27;3.88;;;0.82;;
79478;SDS011;68943;49.472;17.970;2023-09-19T04:25:53;0.88;;;0.45;;
79478;SDS011;68943;49.472;17.970;2023-09-19T04:28:19;1.08;;;0.77;;
79478;SDS011;68943;49.472;17.970;2023-09-19T04:30:45;2.80;;;0.75;;
79478;SDS011;68943;49.472;17.970;2023-09-19T04:33:11;2.80;;;0.80;;
79478;SDS011;68943;49.472;17.970;2023-09-19T04:35:39;1.10;;;0.50;;
79478;SDS011;68943;49.472;17.970;2023-09-19T04:38:07;1.10;;;0.90;;
79478;SDS011;68943;49.472;17.970;2023-09-19T04:40:33;1.42;;;0.68;;
79478;SDS011;68943;49.472;17.970;2023-09-19T04:42:59;1.50;;;0.68;;
79478;SDS011;68943;49.472;17.970;2023-09-19T04:45:25;0.57;;;0.20;;
79478;SDS011;68943;49.472;17.970;2023-09-19T04:47:52;1.83;;;0.30;;
79478;SDS011;68943;49.472;17.970;2023-09-19T04:50:18;1.05;;;0.65;;
79478;SDS011;68943;49.472;17.970;2023-09-19T04:52:48;1.98;;;0.57;;
79478;SDS011;68943;49.472;17.970;2023-09-19T04:55:16;0.90;;;0.43;;
79478;SDS011;68943;49.472;17.970;2023-09-19T04:57:47;0.80;;;0.50;;
79478;SDS011;68943;49.472;17.970;2023-09-19T05:00:14;1.38;;;0.40;;
79478;SDS011;68943;49.472;17.970;2023-09-19T05:02:42;1.42;;;0.40;;
79478;SDS011;68943;49.472;17.970;2023-09-19T05:05:08;2.80;;;0.70;;
79478;SDS011;68943;49.472;17.970;2023-09-19T05:07:40;2.78;;;0.73;;
79478;SDS011;68943;49.472;17.970;2023-09-19T05:10:06;4.15;;;0.77;;
79478;SDS011;68943;49.472;17.970;2023-09-19T05:12:40;2.30;;;0.63;;
79478;SDS011;68943;49.472;17.970;2023-09-19T05:15:14;1.95;;;0.63;;
79478;SDS011;68943;49.472;17.970;2023-09-19T05:17:42;1.63;;;1.45;;
79478;SDS011;68943;49.472;17.970;2023-09-19T05:20:13;1.65;;;0.95;;
79478;SDS011;68943;49.472;17.970;2023-09-19T05:22:43;1.13;;;0.73;;
79478;SDS011;68943;49.472;17.970;2023-09-19T05:25:11;3.88;;;1.20;;
79478;SDS011;68943;49.472;17.970;2023-09-19T05:27:45;2.00;;;0.73;;
79478;SDS011;68943;49.472;17.970;2023-09-19T05:30:11;6.03;;;1.15;;
79478;SDS011;68943;49.472;17.970;2023-09-19T05:32:39;1.90;;;1.13;;
79478;SDS011;68943;49.472;17.970;2023-09-19T05:35:06;3.25;;;1.38;;
79478;SDS011;68943;49.472;17.970;2023-09-19T05:37:34;4.82;;;1.05;;
79478;SDS011;68943;49.472;17.970;2023-09-19T05:40:02;2.92;;;1.60;;
79478;SDS011;68943;49.472;17.970;2023-09-19T05:42:32;1.90;;;1.13;;
79478;SDS011;68943;49.472;17.970;2023-09-19T05:44:58;4.00;;;1.98;;
79478;SDS011;68943;49.472;17.970;2023-09-19T05:47:25;1.65;;;0.75;;
79478;SDS011;68943;49.472;17.970;2023-09-19T05:49:51;2.78;;;0.88;;
79478;SDS011;68943;49.472;17.970;2023-09-19T05:52:17;2.78;;;1.65;;
79478;SDS011;68943;49.472;17.970;2023-09-19T05:58:02;3.47;;;1.67;;
79478;SDS011;68943;49.472;17.970;2023-09-19T06:00:28;6.95;;;1.55;;
79478;SDS011;68943;49.472;17.970;2023-09-19T06:02:57;2.33;;;1.02;;
79478;SDS011;68943;49.472;17.970;2023-09-19T06:05:26;3.35;;;0.85;;
79478;SDS011;68943;49.472;17.970;2023-09-19T06:07:53;3.08;;;1.08;;
79478;SDS011;68943;49.472;17.970;2023-09-19T06:10:19;1.80;;;1.45;;
79478;SDS011;68943;49.472;17.970;2023-09-19T06:12:47;2.67;;;1.40;;
79478;SDS011;68943;49.472;17.970;2023-09-19T06:15:13;2.22;;;0.95;;
79478;SDS011;68943;49.472;17.970;2023-09-19T06:17:47;3.08;;;1.25;;
79478;SDS011;68943;49.472;17.970;2023-09-19T06:20:14;2.97;;;0.95;;
79478;SDS011;68943;49.472;17.970;2023-09-19T06:22:43;2.05;;;0.80;;
79478;SDS011;68943;49.472;17.970;2023-09-19T06:25:10;3.90;;;1.40;;
79478;SDS011;68943;49.472;17.970;2023-09-19T06:27:40;1.48;;;0.73;;
79478;SDS011;68943;49.472;17.970;2023-09-19T06:30:10;5.03;;;0.82;;
79478;SDS011;68943;49.472;17.970;2023-09-19T06:32:36;1.67;;;0.80;;
79478;SDS011;68943;49.472;17.970;2023-09-19T06:35:02;3.58;;;0.63;;
79478;SDS011;68943;49.472;17.970;2023-09-19T06:37:32;2.20;;;0.57;;
79478;SDS011;68943;49.472;17.970;2023-09-19T06:39:59;3.83;;;0.82;;
79478;SDS011;68943;49.472;17.970;2023-09-19T06:42:25;2.33;;;1.02;;
79478;SDS011;68943;49.472;17.970;2023-09-19T06:44:53;4.32;;;1.27;;
79478;SDS011;68943;49.472;17.970;2023-09-19T06:47:19;1.77;;;0.22;;
79478;SDS011;68943;49.472;17.970;2023-09-19T06:49:46;1.42;;;0.85;;
79478;SDS011;68943;49.472;17.970;2023-09-19T06:52:13;2.08;;;0.63;;
79478;SDS011;68943;49.472;17.970;2023-09-19T06:54:39;2.95;;;1.38;;
79478;SDS011;68943;49.472;17.970;2023-09-19T06:57:06;1.23;;;0.75;;
79478;SDS011;68943;49.472;17.970;2023-09-19T06:59:35;1.40;;;0.60;;
79478;SDS011;68943;49.472;17.970;2023-09-19T07:02:02;3.40;;;0.80;;
79478;SDS011;68943;49.472;17.970;2023-09-19T07:04:31;3.22;;;0.73;;
79478;SDS011;68943;49.472;17.970;2023-09-19T07:06:57;4.22;;;1.00;;
79478;SDS011;68943;49.472;17.970;2023-09-19T07:09:23;1.67;;;0.68;;
79478;SDS011;68943;49.472;17.970;2023-09-19T07:11:52;1.08;;;0.50;;
79478;SDS011;68943;49.472;17.970;2023-09-19T07:14:18;3.78;;;1.35;;
79478;SDS011;68943;49.472;17.970;2023-09-19T07:16:44;1.33;;;0.75;;
79478;SDS011;68943;49.472;17.970;2023-09-19T07:19:13;1.00;;;0.47;;
79478;SDS011;68943;49.472;17.970;2023-09-19T07:21:40;2.22;;;0.50;;
79478;SDS011;68943;49.472;17.970;2023-09-19T07:24:07;1.35;;;0.65;;
79478;SDS011;68943;49.472;17.970;2023-09-19T07:26:33;3.83;;;0.32;;
79478;SDS011;68943;49.472;17.970;2023-09-19T07:29:00;1.05;;;0.63;;
79478;SDS011;68943;49.472;17.970;2023-09-19T07:31:29;1.70;;;0.60;;
79478;SDS011;68943;49.472;17.970;2023-09-19T07:33:56;2.20;;;0.85;;
79478;SDS011;68943;49.472;17.970;2023-09-19T07:36:22;1.27;;;0.57;;
79478;SDS011;68943;49.472;17.970;2023-09-19T07:38:49;1.83;;;0.82;;
79478;SDS011;68943;49.472;17.970;2023-09-19T07:41:15;1.73;;;0.47;;
79478;SDS011;68943;49.472;17.970;2023-09-19T07:43:41;1.83;;;0.70;;
79478;SDS011;68943;49.472;17.970;2023-09-19T07:46:09;5.93;;;2.10;;
79478;SDS011;68943;49.472;17.970;2023-09-19T07:48:35;14.55;;;6.00;;
79478;SDS011;68943;49.472;17.970;2023-09-19T07:51:03;15.50;;;8.13;;
79478;SDS011;68943;49.472;17.970;2023-09-19T07:53:30;5.78;;;3.20;;
79478;SDS011;68943;49.472;17.970;2023-09-19T07:56:03;7.63;;;3.20;;
79478;SDS011;68943;49.472;17.970;2023-09-19T07:58:29;7.38;;;2.63;;
79478;SDS011;68943;49.472;17.970;2023-09-19T08:00:55;3.67;;;2.20;;
79478;SDS011;68943;49.472;17.970;2023-09-19T08:03:21;3.85;;;1.30;;
79478;SDS011;68943;49.472;17.970;2023-09-19T08:05:47;14.75;;;7.60;;
79478;SDS011;68943;49.472;17.970;2023-09-19T08:08:13;13.80;;;5.95;;
79478;SDS011;68943;49.472;17.970;2023-09-19T08:10:39;14.80;;;8.30;;
79478;SDS011;68943;49.472;17.970;2023-09-19T08:13:07;11.35;;;4.78;;
79478;SDS011;68943;49.472;17.970;2023-09-19T08:15:42;11.68;;;5.68;;
79478;SDS011;68943;49.472;17.970;2023-09-19T08:18:11;23.92;;;11.27;;
79478;SDS011;68943;49.472;17.970;2023-09-19T08:20:38;21.73;;;8.90;;
79478;SDS011;68943;49.472;17.970;2023-09-19T08:23:07;22.85;;;10.70;;
79478;SDS011;68943;49.472;17.970;2023-09-19T08:25:33;28.23;;;13.40;;
79478;SDS011;68943;49.472;17.970;2023-09-19T08:28:00;46.63;;;20.92;;
79478;SDS011;68943;49.472;17.970;2023-09-19T08:30:33;33.95;;;15.68;;
79478;SDS011;68943;49.472;17.970;2023-09-19T08:32:59;11.98;;;4.75;;
79478;SDS011;68943;49.472;17.970;2023-09-19T08:38:33;4.70;;;2.15;;
79478;SDS011;68943;49.472;17.970;2023-09-19T08:41:00;3.70;;;2.08;;
79478;SDS011;68943;49.472;17.970;2023-09-19T08:43:26;4.35;;;1.58;;
79478;SDS011;68943;49.472;17.970;2023-09-19T08:45:57;7.22;;;3.47;;
79478;SDS011;68943;49.472;17.970;2023-09-19T08:48:27;8.65;;;3.60;;
79478;SDS011;68943;49.472;17.970;2023-09-19T08:53:26;2.60;;;0.50;;
79478;SDS011;68943;49.472;17.970;2023-09-19T08:55:53;2.60;;;1.25;;
79478;SDS011;68943;49.472;17.970;2023-09-19T08:58:21;4.35;;;1.63;;
79478;SDS011;68943;49.472;17.970;2023-09-19T09:00:51;2.63;;;0.98;;
79478;SDS011;68943;49.472;17.970;2023-09-19T09:05:45;1.65;;;0.82;;
79478;SDS011;68943;49.472;17.970;2023-09-19T09:08:12;3.50;;;1.25;;
79478;SDS011;68943;49.472;17.970;2023-09-19T09:10:40;3.22;;;1.38;;
79478;SDS011;68943;49.472;17.970;2023-09-19T09:13:07;3.20;;;1.17;;
79478;SDS011;68943;49.472;17.970;2023-09-19T09:15:35;3.83;;;0.93;;
79478;SDS011;68943;49.472;17.970;2023-09-19T09:18:02;3.08;;;0.80;;
79478;SDS011;68943;49.472;17.970;2023-09-19T09:20:29;4.03;;;1.77;;
79478;SDS011;68943;49.472;17.970;2023-09-19T09:22:56;3.08;;;1.00;;
79478;SDS011;68943;49.472;17.970;2023-09-19T09:28:18;2.85;;;0.90;;
79478;SDS011;68943;49.472;17.970;2023-09-19T09:30:45;3.45;;;0.80;;
79478;SDS011;68943;49.472;17.970;2023-09-19T09:33:11;2.05;;;1.15;;
79478;SDS011;68943;49.472;17.970;2023-09-19T09:35:48;2.75;;;0.90;;
79478;SDS011;68943;49.472;17.970;2023-09-19T09:38:17;3.05;;;1.00;;
79478;SDS011;68943;49.472;17.970;2023-09-19T09:40:48;4.20;;;2.05;;
79478;SDS011;68943;49.472;17.970;2023-09-19T09:46:14;6.63;;;1.20;;
79478;SDS011;68943;49.472;17.970;2023-09-19T09:48:47;2.85;;;1.38;;
79478;SDS011;68943;49.472;17.970;2023-09-19T09:51:36;5.20;;;1.83;;
79478;SDS011;68943;49.472;17.970;2023-09-19T09:54:14;5.78;;;2.08;;
79478;SDS011;68943;49.472;17.970;2023-09-19T10:02:37;3.00;;;1.77;;
79478;SDS011;68943;49.472;17.970;2023-09-19T10:05:16;4.10;;;2.03;;
79478;SDS011;68943;49.472;17.970;2023-09-19T10:07:45;2.85;;;1.70;;
79478;SDS011;68943;49.472;17.970;2023-09-19T10:10:35;2.65;;;1.60;;
79478;SDS011;68943;49.472;17.970;2023-09-19T10:13:08;3.47;;;1.83;;
79478;SDS011;68943;49.472;17.970;2023-09-19T10:18:51;3.72;;;2.33;;
79478;SDS011;68943;49.472;17.970;2023-09-19T10:21:19;2.08;;;1.58;;
79478;SDS011;68943;49.472;17.970;2023-09-19T10:23:48;1.67;;;1.25;;
79478;SDS011;68943;49.472;17.970;2023-09-19T10:26:17;2.88;;;2.30;;
79478;SDS011;68943;49.472;17.970;2023-09-19T10:28:43;7.00;;;3.05;;
79478;SDS011;68943;49.472;17.970;2023-09-19T10:31:13;5.53;;;3.17;;
79478;SDS011;68943;49.472;17.970;2023-09-19T10:33:44;5.22;;;2.63;;
79478;SDS011;68943;49.472;17.970;2023-09-19T10:36:11;6.18;;;2.90;;
79478;SDS011;68943;49.472;17.970;2023-09-19T10:38:37;10.68;;;4.65;;
79478;SDS011;68943;49.472;17.970;2023-09-19T10:41:05;7.15;;;2.95;;
79478;SDS011;68943;49.472;17.970;2023-09-19T10:43:33;6.38;;;3.20;;
79478;SDS011;68943;49.472;17.970;2023-09-19T10:46:03;5.63;;;3.08;;
79478;SDS011;68943;49.472;17.970;2023-09-19T10:48:30;14.85;;;7.63;;
79478;SDS011;68943;49.472;17.970;2023-09-19T10:50:59;14.73;;;7.40;;
79478;SDS011;68943;49.472;17.970;2023-09-19T10:53:41;14.18;;;7.93;;
79478;SDS011;68943;49.472;17.970;2023-09-19T10:56:08;8.85;;;5.13;;
79478;SDS011;68943;49.472;17.970;2023-09-19T10:58:42;5.07;;;2.72;;
79478;SDS011;68943;49.472;17.970;2023-09-19T11:01:10;3.63;;;2.30;;
79478;SDS011;68943;49.472;17.970;2023-09-19T11:03:43;6.60;;;3.80;;
79478;SDS011;68943;49.472;17.970;2023-09-19T11:06:10;5.22;;;2.85;;
79478;SDS011;68943;49.472;17.970;2023-09-19T11:08:54;22.10;;;12.10;;
79478;SDS011;68943;49.472;17.970;2023-09-19T11:14:38;10.32;;;2.80;;
79478;SDS011;68943;49.472;17.970;2023-09-19T11:19:37;10.07;;;4.97;;
79478;SDS011;68943;49.472;17.970;2023-09-19T11:22:14;5.22;;;2.45;;
79478;SDS011;68943;49.472;17.970;2023-09-19T11:24:40;2.53;;;1.50;;
79478;SDS011;68943;49.472;17.970;2023-09-19T11:27:13;5.13;;;1.38;;
79478;SDS011;68943;49.472;17.970;2023-09-19T11:29:42;4.70;;;2.28;;
79478;SDS011;68943;49.472;17.970;2023-09-19T11:32:08;2.33;;;1.35;;
79478;SDS011;68943;49.472;17.970;2023-09-19T11:39:39;4.43;;;2.30;;
79478;SDS011;68943;49.472;17.970;2023-09-19T11:44:59;3.88;;;2.45;;
79478;SDS011;68943;49.472;17.970;2023-09-19T11:47:26;3.53;;;2.08;;
79478;SDS011;68943;49.472;17.970;2023-09-19T11:49:52;4.57;;;2.92;;
79478;SDS011;68943;49.472;17.970;2023-09-19T11:52:21;4.55;;;2.80;;
79478;SDS011;68943;49.472;17.970;2023-09-19T11:54:56;5.55;;;3.30;;
79478;SDS011;68943;49.472;17.970;2023-09-19T11:57:24;4.57;;;2.40;;
79478;SDS011;68943;49.472;17.970;2023-09-19T11:59:51;4.30;;;2.63;;
79478;SDS011;68943;49.472;17.970;2023-09-19T12:02:27;4.43;;;2.17;;
79478;SDS011;68943;49.472;17.970;2023-09-19T12:04:59;4.18;;;1.55;;
79478;SDS011;68943;49.472;17.970;2023-09-19T12:07:31;3.47;;;1.85;;
79478;SDS011;68943;49.472;17.970;2023-09-19T12:10:13;3.95;;;1.63;;
79478;SDS011;68943;49.472;17.970;2023-09-19T12:12:46;3.47;;;2.13;;
79478;SDS011;68943;49.472;17.970;2023-09-19T12:15:24;2.80;;;1.52;;
79478;SDS011;68943;49.472;17.970;2023-09-19T12:17:59;4.07;;;3.30;;
79478;SDS011;68943;49.472;17.970;2023-09-19T12:20:41;5.43;;;2.65;;
79478;SDS011;68943;49.472;17.970;2023-09-19T12:23:14;4.28;;;1.75;;
79478;SDS011;68943;49.472;17.970;2023-09-19T12:25:43;3.08;;;1.95;;
79478;SDS011;68943;49.472;17.970;2023-09-19T12:28:17;5.40;;;1.90;;
79478;SDS011;68943;49.472;17.970;2023-09-19T12:30:46;4.18;;;2.30;;
79478;SDS011;68943;49.472;17.970;2023-09-19T12:33:17;4.30;;;1.80;;
79478;SDS011;68943;49.472;17.970;2023-09-19T12:35:50;6.72;;;1.92;;
79478;SDS011;68943;49.472;17.970;2023-09-19T12:38:28;3.85;;;1.67;;
79478;SDS011;68943;49.472;17.970;2023-09-19T12:41:01;2.83;;;1.40;;
79478;SDS011;68943;49.472;17.970;2023-09-19T12:43:30;3.80;;;1.58;;
79478;SDS011;68943;49.472;17.970;2023-09-19T12:46:04;2.85;;;1.40;;
79478;SDS011;68943;49.472;17.970;2023-09-19T12:48:31;3.20;;;1.30;;
79478;SDS011;68943;49.472;17.970;2023-09-19T12:53:42;2.15;;;1.55;;
79478;SDS011;68943;49.472;17.970;2023-09-19T12:56:15;3.53;;;1.48;;
79478;SDS011;68943;49.472;17.970;2023-09-19T12:59:14;1.95;;;0.88;;
79478;SDS011;68943;49.472;17.970;2023-09-19T13:01:35;1.48;;;1.08;;
79478;SDS011;68943;49.472;17.970;2023-09-19T13:04:18;2.15;;;1.00;;
79478;SDS011;68943;49.472;17.970;2023-09-19T13:06:48;6.22;;;2.40;;
79478;SDS011;68943;49.472;17.970;2023-09-19T13:09:15;3.10;;;1.15;;
79478;SDS011;68943;49.472;17.970;2023-09-19T13:11:43;3.65;;;2.10;;
79478;SDS011;68943;49.472;17.970;2023-09-19T13:22:05;4.63;;;1.30;;
79478;SDS011;68943;49.472;17.970;2023-09-19T13:27:04;4.78;;;1.85;;
79478;SDS011;68943;49.472;17.970;2023-09-19T13:29:31;2.88;;;1.52;;
79478;SDS011;68943;49.472;17.970;2023-09-19T13:31:57;4.10;;;1.52;;
79478;SDS011;68943;49.472;17.970;2023-09-19T13:34:23;3.38;;;1.52;;
79478;SDS011;68943;49.472;17.970;2023-09-19T13:36:50;3.35;;;1.52;;
79478;SDS011;68943;49.472;17.970;2023-09-19T13:39:16;2.25;;;1.40;;
79478;SDS011;68943;49.472;17.970;2023-09-19T13:41:49;5.30;;;1.48;;
79478;SDS011;68943;49.472;17.970;2023-09-19T13:44:15;2.55;;;1.55;;
79478;SDS011;68943;49.472;17.970;2023-09-19T13:46:43;2.97;;;2.20;;
79478;SDS011;68943;49.472;17.970;2023-09-19T13:49:11;5.72;;;1.85;;
79478;SDS011;68943;49.472;17.970;2023-09-19T13:51:37;3.38;;;1.63;;
79478;SDS011;68943;49.472;17.970;2023-09-19T13:54:03;1.60;;;1.38;;
79478;SDS011;68943;49.472;17.970;2023-09-19T13:56:30;5.25;;;2.65;;
79478;SDS011;68943;49.472;17.970;2023-09-19T13:58:58;3.95;;;1.77;;
79478;SDS011;68943;49.472;17.970;2023-09-19T14:01:24;4.18;;;1.65;;
79478;SDS011;68943;49.472;17.970;2023-09-19T14:03:52;2.13;;;1.00;;
79478;SDS011;68943;49.472;17.970;2023-09-19T14:06:19;1.90;;;1.45;;
79478;SDS011;68943;49.472;17.970;2023-09-19T14:08:48;3.05;;;1.30;;
79478;SDS011;68943;49.472;17.970;2023-09-19T14:11:15;3.72;;;1.70;;
79478;SDS011;68943;49.472;17.970;2023-09-19T14:13:43;2.03;;;1.20;;
79478;SDS011;68943;49.472;17.970;2023-09-19T14:16:12;2.45;;;1.17;;
79478;SDS011;68943;49.472;17.970;2023-09-19T14:18:39;2.60;;;1.30;;
79478;SDS011;68943;49.472;17.970;2023-09-19T14:21:05;3.70;;;1.20;;
79478;SDS011;68943;49.472;17.970;2023-09-19T14:23:36;2.72;;;1.45;;
79478;SDS011;68943;49.472;17.970;2023-09-19T14:26:03;2.33;;;1.20;;
79478;SDS011;68943;49.472;17.970;2023-09-19T14:28:34;3.65;;;2.22;;
79478;SDS011;68943;49.472;17.970;2023-09-19T14:31:06;4.32;;;1.48;;
79478;SDS011;68943;49.472;17.970;2023-09-19T14:33:32;2.58;;;1.40;;
79478;SDS011;68943;49.472;17.970;2023-09-19T14:36:01;2.88;;;1.90;;
79478;SDS011;68943;49.472;17.970;2023-09-19T14:38:29;3.42;;;1.77;;
79478;SDS011;68943;49.472;17.970;2023-09-19T14:40:59;2.35;;;1.67;;
79478;SDS011;68943;49.472;17.970;2023-09-19T14:43:26;2.15;;;0.85;;
79478;SDS011;68943;49.472;17.970;2023-09-19T14:45:54;2.67;;;2.03;;
79478;SDS011;68943;49.472;17.970;2023-09-19T14:48:20;2.15;;;1.20;;
79478;SDS011;68943;49.472;17.970;2023-09-19T14:53:54;2.78;;;1.52;;
79478;SDS011;68943;49.472;17.970;2023-09-19T14:56:22;4.18;;;1.50;;
79478;SDS011;68943;49.472;17.970;2023-09-19T14:58:50;3.42;;;1.88;;
79478;SDS011;68943;49.472;17.970;2023-09-19T15:01:16;2.78;;;1.67;;
79478;SDS011;68943;49.472;17.970;2023-09-19T15:03:42;3.72;;;1.75;;
79478;SDS011;68943;49.472;17.970;2023-09-19T15:06:10;3.25;;;1.70;;
79478;SDS011;68943;49.472;17.970;2023-09-19T15:08:41;4.10;;;1.63;;
79478;SDS011;68943;49.472;17.970;2023-09-19T15:11:22;3.70;;;1.70;;
79478;SDS011;68943;49.472;17.970;2023-09-19T15:13:50;2.35;;;1.55;;
79478;SDS011;68943;49.472;17.970;2023-09-19T15:16:16;3.08;;;1.75;;
79478;SDS011;68943;49.472;17.970;2023-09-19T15:18:43;3.90;;;1.48;;
79478;SDS011;68943;49.472;17.970;2023-09-19T15:21:10;2.15;;;1.10;;
79478;SDS011;68943;49.472;17.970;2023-09-19T15:23:37;1.98;;;1.30;;
79478;SDS011;68943;49.472;17.970;2023-09-19T15:26:04;2.28;;;1.85;;
79478;SDS011;68943;49.472;17.970;2023-09-19T15:28:30;2.75;;;1.38;;
79478;SDS011;68943;49.472;17.970;2023-09-19T15:31:01;2.95;;;1.88;;
79478;SDS011;68943;49.472;17.970;2023-09-19T15:33:28;3.38;;;1.52;;
79478;SDS011;68943;49.472;17.970;2023-09-19T15:36:02;2.83;;;1.75;;
79478;SDS011;68943;49.472;17.970;2023-09-19T15:38:29;2.42;;;1.67;;
79478;SDS011;68943;49.472;17.970;2023-09-19T15:40:56;2.08;;;1.58;;
79478;SDS011;68943;49.472;17.970;2023-09-19T15:43:22;1.85;;;1.30;;
79478;SDS011;68943;49.472;17.970;2023-09-19T15:45:49;4.13;;;1.30;;
79478;SDS011;68943;49.472;17.970;2023-09-19T15:48:15;5.40;;;2.03;;
79478;SDS011;68943;49.472;17.970;2023-09-19T15:50:42;8.52;;;2.20;;
79478;SDS011;68943;49.472;17.970;2023-09-19T15:53:10;2.83;;;1.30;;
79478;SDS011;68943;49.472;17.970;2023-09-19T15:55:39;1.45;;;1.02;;
79478;SDS011;68943;49.472;17.970;2023-09-19T15:58:05;2.53;;;1.05;;
79478;SDS011;68943;49.472;17.970;2023-09-19T16:00:32;2.95;;;1.30;;